Terminal Aerodrome Forecast
Issued by NWS

Home | Current Version | Previous Version | Text Only | Print | Product List | Glossary On
Versions: 1 2 3 4 5 6 7 8 9 10 11 12 13
129
FTUS43 KSGF 130537
TAFJLN
TAF
KJLN 130537Z 1306/1406 04009KT P6SM OVC120
     FM131200 08009KT P6SM BKN100 OVC250
     FM131900 11009KT P6SM SCT070 BKN250
     FM140200 12008KT P6SM BKN050=

USA.gov is the U.S. government's official web portal to all federal, state and local government web resources and services.